CCN2 weather

Grand Manan Airport
Grand Manan, New Brunswick, Canada

Public forecast

Using degrees Celsius for public forecast. Weather courtesy of forecast.io.

Closest aviation weather report (METAR) to Grand Manan Airport

Closest report is Saint John Airport, 52.8 nm (97.8 km) NE. Retrieved 2019/11/19 12:00 UTC (5 minutes ago):

CYSJ 191200Z 36014KT 4SM -RA BR BKN006 OVC030 02/01 A2959 RMK SF6SC2 SLP025

Closest aviation forecast (TAF) to Grand Manan Airport

Closest forecast is Saint John Airport, 52.8 nm (97.8 km) NE. Retrieved 2019/11/19 12:45 UTC (0 seconds ago):

TAF CYSJ 191143Z 1912/1924 36010G20KT 2SM -DZ BR OVC005 TEMPO 1912/1914 6SM -RA BR OVC020 FM191400 35012KT 6SM -RA BR OVC020 TEMPO 1914/1924 4SM -DZ BR OVC008 RMK NXT FCST BY 191800Z